sensor_id;sensor_type;location;lat;lon;timestamp;temperature;humidity
66184;DHT22;52989;48.796;9.806;2023-07-29T00:01:58;16.60;99.90
66184;DHT22;52989;48.796;9.806;2023-07-29T00:04:24;16.60;99.90
66184;DHT22;52989;48.796;9.806;2023-07-29T00:06:49;16.70;99.90
66184;DHT22;52989;48.796;9.806;2023-07-29T00:09:15;16.80;99.90
66184;DHT22;52989;48.796;9.806;2023-07-29T00:11:40;16.70;99.90
66184;DHT22;52989;48.796;9.806;2023-07-29T00:14:06;16.60;99.90
66184;DHT22;52989;48.796;9.806;2023-07-29T00:16:31;16.50;99.90
66184;DHT22;52989;48.796;9.806;2023-07-29T00:18:57;16.40;99.90
66184;DHT22;52989;48.796;9.806;2023-07-29T00:21:22;16.30;99.90
66184;DHT22;52989;48.796;9.806;2023-07-29T00:23:48;16.20;99.90
66184;DHT22;52989;48.796;9.806;2023-07-29T00:26:13;16.10;99.90
66184;DHT22;52989;48.796;9.806;2023-07-29T00:28:39;16.00;99.90
66184;DHT22;52989;48.796;9.806;2023-07-29T00:31:04;15.90;99.90
66184;DHT22;52989;48.796;9.806;2023-07-29T00:33:30;15.90;99.90
66184;DHT22;52989;48.796;9.806;2023-07-29T00:35:55;15.90;99.90
66184;DHT22;52989;48.796;9.806;2023-07-29T00:38:21;15.90;99.90
66184;DHT22;52989;48.796;9.806;2023-07-29T00:40:46;15.90;99.90
66184;DHT22;52989;48.796;9.806;2023-07-29T00:43:12;15.80;99.90
66184;DHT22;52989;48.796;9.806;2023-07-29T00:45:37;15.90;99.90
66184;DHT22;52989;48.796;9.806;2023-07-29T00:48:03;15.80;99.90
66184;DHT22;52989;48.796;9.806;2023-07-29T00:50:29;15.90;99.90
66184;DHT22;52989;48.796;9.806;2023-07-29T00:52:55;15.90;99.90
66184;DHT22;52989;48.796;9.806;2023-07-29T00:55:21;16.10;99.90
66184;DHT22;52989;48.796;9.806;2023-07-29T00:57:47;16.10;99.90
66184;DHT22;52989;48.796;9.806;2023-07-29T01:00:14;16.20;99.90
66184;DHT22;52989;48.796;9.806;2023-07-29T01:02:41;16.30;99.90
66184;DHT22;52989;48.796;9.806;2023-07-29T01:05:07;16.30;99.90
66184;DHT22;52989;48.796;9.806;2023-07-29T01:07:33;16.30;99.90
66184;DHT22;52989;48.796;9.806;2023-07-29T01:10:02;16.20;99.90
66184;DHT22;52989;48.796;9.806;2023-07-29T01:17:30;16.40;99.90
66184;DHT22;52989;48.796;9.806;2023-07-29T01:20:01;16.30;99.90
66184;DHT22;52989;48.796;9.806;2023-07-29T01:22:31;16.20;99.90
66184;DHT22;52989;48.796;9.806;2023-07-29T01:24:57;16.10;99.90
66184;DHT22;52989;48.796;9.806;2023-07-29T01:27:24;16.10;99.90
66184;DHT22;52989;48.796;9.806;2023-07-29T01:29:50;16.10;99.90
66184;DHT22;52989;48.796;9.806;2023-07-29T01:32:58;16.20;99.90
66184;DHT22;52989;48.796;9.806;2023-07-29T01:35:10;16.10;99.90
66184;DHT22;52989;48.796;9.806;2023-07-29T01:37:36;16.10;99.90
66184;DHT22;52989;48.796;9.806;2023-07-29T01:40:03;16.10;99.90
66184;DHT22;52989;48.796;9.806;2023-07-29T01:42:29;16.00;99.90
66184;DHT22;52989;48.796;9.806;2023-07-29T01:44:54;16.00;99.90
66184;DHT22;52989;48.796;9.806;2023-07-29T01:47:20;16.00;99.90
66184;DHT22;52989;48.796;9.806;2023-07-29T01:49:47;16.10;99.90
66184;DHT22;52989;48.796;9.806;2023-07-29T01:52:13;16.20;99.90
66184;DHT22;52989;48.796;9.806;2023-07-29T01:54:38;16.20;99.90
66184;DHT22;52989;48.796;9.806;2023-07-29T01:57:04;16.20;99.90
66184;DHT22;52989;48.796;9.806;2023-07-29T01:59:29;16.10;99.90
66184;DHT22;52989;48.796;9.806;2023-07-29T02:01:54;16.20;99.90
66184;DHT22;52989;48.796;9.806;2023-07-29T02:04:20;16.20;99.90
66184;DHT22;52989;48.796;9.806;2023-07-29T02:06:45;16.30;99.90
66184;DHT22;52989;48.796;9.806;2023-07-29T02:09:11;16.20;99.90
66184;DHT22;52989;48.796;9.806;2023-07-29T02:11:36;16.20;99.90
66184;DHT22;52989;48.796;9.806;2023-07-29T02:14:02;16.10;99.90
66184;DHT22;52989;48.796;9.806;2023-07-29T02:16:27;16.20;99.90
66184;DHT22;52989;48.796;9.806;2023-07-29T02:18:53;16.20;99.90
66184;DHT22;52989;48.796;9.806;2023-07-29T02:21:18;16.20;99.90
66184;DHT22;52989;48.796;9.806;2023-07-29T02:23:44;16.30;99.90
66184;DHT22;52989;48.796;9.806;2023-07-29T02:26:10;16.30;99.90
66184;DHT22;52989;48.796;9.806;2023-07-29T02:28:36;16.30;99.90
66184;DHT22;52989;48.796;9.806;2023-07-29T02:33:42;16.50;99.90
66184;DHT22;52989;48.796;9.806;2023-07-29T02:36:08;16.50;99.90
66184;DHT22;52989;48.796;9.806;2023-07-29T02:38:33;16.40;99.90
66184;DHT22;52989;48.796;9.806;2023-07-29T02:40:59;16.40;99.90
66184;DHT22;52989;48.796;9.806;2023-07-29T02:43:24;16.30;99.90
66184;DHT22;52989;48.796;9.806;2023-07-29T02:45:50;16.30;99.90
66184;DHT22;52989;48.796;9.806;2023-07-29T02:48:15;16.30;99.90
66184;DHT22;52989;48.796;9.806;2023-07-29T02:50:41;16.10;99.90
66184;DHT22;52989;48.796;9.806;2023-07-29T02:53:06;16.10;99.90
66184;DHT22;52989;48.796;9.806;2023-07-29T02:55:32;16.00;99.90
66184;DHT22;52989;48.796;9.806;2023-07-29T02:57:57;15.90;99.90
66184;DHT22;52989;48.796;9.806;2023-07-29T03:00:22;16.00;99.90
66184;DHT22;52989;48.796;9.806;2023-07-29T03:02:49;15.80;99.90
66184;DHT22;52989;48.796;9.806;2023-07-29T03:05:14;15.70;99.90
66184;DHT22;52989;48.796;9.806;2023-07-29T03:07:40;15.70;99.90
66184;DHT22;52989;48.796;9.806;2023-07-29T03:10:06;15.70;99.90
66184;DHT22;52989;48.796;9.806;2023-07-29T03:12:31;15.80;99.90
66184;DHT22;52989;48.796;9.806;2023-07-29T03:14:57;15.80;99.90
66184;DHT22;52989;48.796;9.806;2023-07-29T03:17:22;15.70;99.90
66184;DHT22;52989;48.796;9.806;2023-07-29T03:19:48;15.60;99.90
66184;DHT22;52989;48.796;9.806;2023-07-29T03:22:13;15.50;99.90
66184;DHT22;52989;48.796;9.806;2023-07-29T03:24:40;15.60;99.90
66184;DHT22;52989;48.796;9.806;2023-07-29T03:27:05;15.70;99.90
66184;DHT22;52989;48.796;9.806;2023-07-29T03:29:31;15.90;99.90
66184;DHT22;52989;48.796;9.806;2023-07-29T03:31:56;16.00;99.90
66184;DHT22;52989;48.796;9.806;2023-07-29T03:34:21;15.80;99.90
66184;DHT22;52989;48.796;9.806;2023-07-29T03:36:47;15.90;99.90
66184;DHT22;52989;48.796;9.806;2023-07-29T03:39:16;15.90;99.90
66184;DHT22;52989;48.796;9.806;2023-07-29T03:41:42;16.00;99.90
66184;DHT22;52989;48.796;9.806;2023-07-29T03:44:07;16.00;99.90
66184;DHT22;52989;48.796;9.806;2023-07-29T03:46:33;15.90;99.90
66184;DHT22;52989;48.796;9.806;2023-07-29T03:48:58;15.90;99.90
66184;DHT22;52989;48.796;9.806;2023-07-29T03:51:24;15.90;99.90
66184;DHT22;52989;48.796;9.806;2023-07-29T03:53:50;16.00;99.90
66184;DHT22;52989;48.796;9.806;2023-07-29T03:56:15;16.00;99.90
66184;DHT22;52989;48.796;9.806;2023-07-29T03:58:41;15.90;99.90
66184;DHT22;52989;48.796;9.806;2023-07-29T04:01:06;15.90;99.90
66184;DHT22;52989;48.796;9.806;2023-07-29T04:03:33;16.00;99.90
66184;DHT22;52989;48.796;9.806;2023-07-29T04:05:58;16.10;99.90
66184;DHT22;52989;48.796;9.806;2023-07-29T04:08:24;16.00;99.90
66184;DHT22;52989;48.796;9.806;2023-07-29T04:10:49;16.10;99.90
66184;DHT22;52989;48.796;9.806;2023-07-29T04:13:15;16.20;99.90
66184;DHT22;52989;48.796;9.806;2023-07-29T04:15:40;16.20;99.90
66184;DHT22;52989;48.796;9.806;2023-07-29T04:18:06;16.20;99.90
66184;DHT22;52989;48.796;9.806;2023-07-29T04:20:31;16.20;99.90
66184;DHT22;52989;48.796;9.806;2023-07-29T04:22:57;16.30;99.90
66184;DHT22;52989;48.796;9.806;2023-07-29T04:25:23;16.40;99.90
66184;DHT22;52989;48.796;9.806;2023-07-29T04:27:48;16.50;99.90
66184;DHT22;52989;48.796;9.806;2023-07-29T04:30:13;16.40;99.90
66184;DHT22;52989;48.796;9.806;2023-07-29T04:32:39;16.50;99.90
66184;DHT22;52989;48.796;9.806;2023-07-29T04:35:05;16.50;99.90
66184;DHT22;52989;48.796;9.806;2023-07-29T04:37:30;16.40;99.90
66184;DHT22;52989;48.796;9.806;2023-07-29T04:39:56;16.60;99.90
66184;DHT22;52989;48.796;9.806;2023-07-29T04:42:21;16.60;99.90
66184;DHT22;52989;48.796;9.806;2023-07-29T04:44:46;16.50;99.90
66184;DHT22;52989;48.796;9.806;2023-07-29T04:47:12;16.70;99.90
66184;DHT22;52989;48.796;9.806;2023-07-29T04:49:37;16.60;99.90
66184;DHT22;52989;48.796;9.806;2023-07-29T04:52:03;16.40;99.90
66184;DHT22;52989;48.796;9.806;2023-07-29T04:54:28;16.40;99.90
66184;DHT22;52989;48.796;9.806;2023-07-29T04:56:54;16.40;99.90
66184;DHT22;52989;48.796;9.806;2023-07-29T04:59:20;16.50;99.90
66184;DHT22;52989;48.796;9.806;2023-07-29T05:01:45;16.60;99.90
66184;DHT22;52989;48.796;9.806;2023-07-29T05:04:11;16.70;99.90
66184;DHT22;52989;48.796;9.806;2023-07-29T05:06:36;16.90;99.90
66184;DHT22;52989;48.796;9.806;2023-07-29T05:11:39;16.90;99.90
66184;DHT22;52989;48.796;9.806;2023-07-29T05:14:05;17.00;99.90
66184;DHT22;52989;48.796;9.806;2023-07-29T05:16:31;17.00;99.90
66184;DHT22;52989;48.796;9.806;2023-07-29T05:18:57;17.10;99.90
66184;DHT22;52989;48.796;9.806;2023-07-29T05:21:22;17.10;99.90
66184;DHT22;52989;48.796;9.806;2023-07-29T05:23:48;17.30;99.90
66184;DHT22;52989;48.796;9.806;2023-07-29T05:26:13;17.20;99.90
66184;DHT22;52989;48.796;9.806;2023-07-29T05:28:38;17.10;99.90
66184;DHT22;52989;48.796;9.806;2023-07-29T05:31:04;17.10;99.90
66184;DHT22;52989;48.796;9.806;2023-07-29T05:33:29;17.00;99.90
66184;DHT22;52989;48.796;9.806;2023-07-29T05:35:55;16.90;99.90
66184;DHT22;52989;48.796;9.806;2023-07-29T05:38:20;16.80;99.90
66184;DHT22;52989;48.796;9.806;2023-07-29T05:40:47;16.80;99.90
66184;DHT22;52989;48.796;9.806;2023-07-29T05:43:13;17.00;99.90
66184;DHT22;52989;48.796;9.806;2023-07-29T05:45:39;16.80;99.90
66184;DHT22;52989;48.796;9.806;2023-07-29T05:48:05;16.80;99.90
66184;DHT22;52989;48.796;9.806;2023-07-29T05:50:31;16.90;99.90
66184;DHT22;52989;48.796;9.806;2023-07-29T05:52:56;17.00;99.90
66184;DHT22;52989;48.796;9.806;2023-07-29T05:55:21;16.90;99.90
66184;DHT22;52989;48.796;9.806;2023-07-29T05:57:47;16.90;99.90
66184;DHT22;52989;48.796;9.806;2023-07-29T06:00:12;16.90;99.90
66184;DHT22;52989;48.796;9.806;2023-07-29T06:02:38;17.00;99.90
66184;DHT22;52989;48.796;9.806;2023-07-29T06:05:04;17.00;99.90
66184;DHT22;52989;48.796;9.806;2023-07-29T06:07:30;16.90;99.90
66184;DHT22;52989;48.796;9.806;2023-07-29T06:09:57;16.90;99.90
66184;DHT22;52989;48.796;9.806;2023-07-29T06:12:23;16.80;99.90
66184;DHT22;52989;48.796;9.806;2023-07-29T06:14:48;16.90;99.90
66184;DHT22;52989;48.796;9.806;2023-07-29T06:17:14;17.00;99.90
66184;DHT22;52989;48.796;9.806;2023-07-29T06:19:39;17.10;99.90
66184;DHT22;52989;48.796;9.806;2023-07-29T06:22:05;17.20;99.90
66184;DHT22;52989;48.796;9.806;2023-07-29T06:24:31;17.30;99.90
66184;DHT22;52989;48.796;9.806;2023-07-29T06:26:58;17.30;99.90
66184;DHT22;52989;48.796;9.806;2023-07-29T06:29:23;17.50;99.90
66184;DHT22;52989;48.796;9.806;2023-07-29T06:31:49;17.60;99.90
66184;DHT22;52989;48.796;9.806;2023-07-29T06:34:16;17.60;99.90
66184;DHT22;52989;48.796;9.806;2023-07-29T06:36:42;17.90;99.90
66184;DHT22;52989;48.796;9.806;2023-07-29T06:39:07;18.20;99.90
66184;DHT22;52989;48.796;9.806;2023-07-29T06:41:33;18.60;99.90
66184;DHT22;52989;48.796;9.806;2023-07-29T06:43:58;18.50;99.90
66184;DHT22;52989;48.796;9.806;2023-07-29T06:46:24;18.60;99.90
66184;DHT22;52989;48.796;9.806;2023-07-29T06:48:49;18.70;99.90
66184;DHT22;52989;48.796;9.806;2023-07-29T06:51:15;18.60;99.90
66184;DHT22;52989;48.796;9.806;2023-07-29T06:53:40;18.40;99.90
66184;DHT22;52989;48.796;9.806;2023-07-29T06:56:06;18.60;99.90
66184;DHT22;52989;48.796;9.806;2023-07-29T06:58:31;18.70;99.90
66184;DHT22;52989;48.796;9.806;2023-07-29T07:00:57;18.90;99.90
66184;DHT22;52989;48.796;9.806;2023-07-29T07:03:22;19.00;99.90
66184;DHT22;52989;48.796;9.806;2023-07-29T07:05:48;19.10;99.90
66184;DHT22;52989;48.796;9.806;2023-07-29T07:08:13;19.30;99.90
66184;DHT22;52989;48.796;9.806;2023-07-29T07:10:39;19.60;99.90
66184;DHT22;52989;48.796;9.806;2023-07-29T07:13:04;19.60;99.90
66184;DHT22;52989;48.796;9.806;2023-07-29T07:15:30;19.50;99.90
66184;DHT22;52989;48.796;9.806;2023-07-29T07:17:55;19.20;99.90
66184;DHT22;52989;48.796;9.806;2023-07-29T07:20:20;19.10;99.90
66184;DHT22;52989;48.796;9.806;2023-07-29T07:22:46;18.90;99.90
66184;DHT22;52989;48.796;9.806;2023-07-29T07:25:11;19.00;99.90
66184;DHT22;52989;48.796;9.806;2023-07-29T07:27:37;18.90;99.90
66184;DHT22;52989;48.796;9.806;2023-07-29T07:30:03;18.70;99.90
66184;DHT22;52989;48.796;9.806;2023-07-29T07:32:28;18.50;99.90
66184;DHT22;52989;48.796;9.806;2023-07-29T07:34:54;18.60;99.90
66184;DHT22;52989;48.796;9.806;2023-07-29T07:37:19;18.60;99.90
66184;DHT22;52989;48.796;9.806;2023-07-29T07:39:45;18.50;99.90
66184;DHT22;52989;48.796;9.806;2023-07-29T07:42:10;18.60;99.90
66184;DHT22;52989;48.796;9.806;2023-07-29T07:44:35;18.50;99.90
66184;DHT22;52989;48.796;9.806;2023-07-29T07:47:01;18.50;99.90
66184;DHT22;52989;48.796;9.806;2023-07-29T07:49:26;18.40;99.90
66184;DHT22;52989;48.796;9.806;2023-07-29T07:51:52;18.40;99.90
66184;DHT22;52989;48.796;9.806;2023-07-29T07:54:17;18.20;99.90
66184;DHT22;52989;48.796;9.806;2023-07-29T07:56:43;18.10;99.90
66184;DHT22;52989;48.796;9.806;2023-07-29T07:59:08;18.10;99.90
66184;DHT22;52989;48.796;9.806;2023-07-29T08:01:38;18.20;99.90
66184;DHT22;52989;48.796;9.806;2023-07-29T08:04:03;18.00;99.90
66184;DHT22;52989;48.796;9.806;2023-07-29T08:06:29;18.00;99.90
66184;DHT22;52989;48.796;9.806;2023-07-29T08:08:55;17.80;99.90
66184;DHT22;52989;48.796;9.806;2023-07-29T08:11:21;17.80;99.90
66184;DHT22;52989;48.796;9.806;2023-07-29T08:13:46;17.90;99.90
66184;DHT22;52989;48.796;9.806;2023-07-29T08:16:12;18.20;99.90
66184;DHT22;52989;48.796;9.806;2023-07-29T08:18:38;18.30;99.90
66184;DHT22;52989;48.796;9.806;2023-07-29T08:21:03;18.30;99.90
66184;DHT22;52989;48.796;9.806;2023-07-29T08:23:30;18.80;99.90
66184;DHT22;52989;48.796;9.806;2023-07-29T08:25:56;18.90;99.90
66184;DHT22;52989;48.796;9.806;2023-07-29T08:28:27;19.00;99.90
66184;DHT22;52989;48.796;9.806;2023-07-29T08:30:53;19.10;99.90
66184;DHT22;52989;48.796;9.806;2023-07-29T08:33:18;18.90;99.90
66184;DHT22;52989;48.796;9.806;2023-07-29T08:35:44;18.80;99.90
66184;DHT22;52989;48.796;9.806;2023-07-29T08:38:09;18.80;99.90
66184;DHT22;52989;48.796;9.806;2023-07-29T08:40:35;18.90;99.90
66184;DHT22;52989;48.796;9.806;2023-07-29T08:43:03;19.20;99.90
66184;DHT22;52989;48.796;9.806;2023-07-29T08:45:30;19.20;99.90
66184;DHT22;52989;48.796;9.806;2023-07-29T08:47:56;19.30;99.90
66184;DHT22;52989;48.796;9.806;2023-07-29T08:50:23;19.30;99.90
66184;DHT22;52989;48.796;9.806;2023-07-29T08:52:49;19.40;99.90
66184;DHT22;52989;48.796;9.806;2023-07-29T08:55:16;19.40;99.90
66184;DHT22;52989;48.796;9.806;2023-07-29T08:57:42;19.50;99.90
66184;DHT22;52989;48.796;9.806;2023-07-29T09:00:07;19.70;99.90
66184;DHT22;52989;48.796;9.806;2023-07-29T09:02:33;19.90;99.90
66184;DHT22;52989;48.796;9.806;2023-07-29T09:04:58;20.10;99.90
66184;DHT22;52989;48.796;9.806;2023-07-29T09:07:24;20.30;99.90
66184;DHT22;52989;48.796;9.806;2023-07-29T09:09:50;20.20;99.90
66184;DHT22;52989;48.796;9.806;2023-07-29T09:12:15;20.20;99.90
66184;DHT22;52989;48.796;9.806;2023-07-29T09:14:41;20.30;99.90
66184;DHT22;52989;48.796;9.806;2023-07-29T09:17:07;20.00;99.90
66184;DHT22;52989;48.796;9.806;2023-07-29T09:19:32;19.90;99.90
66184;DHT22;52989;48.796;9.806;2023-07-29T09:22:00;20.10;99.90
66184;DHT22;52989;48.796;9.806;2023-07-29T09:24:25;20.20;99.90
66184;DHT22;52989;48.796;9.806;2023-07-29T09:26:54;20.40;99.90
66184;DHT22;52989;48.796;9.806;2023-07-29T09:29:23;20.70;99.90
66184;DHT22;52989;48.796;9.806;2023-07-29T09:31:49;20.80;99.90
66184;DHT22;52989;48.796;9.806;2023-07-29T09:34:15;21.00;99.90
66184;DHT22;52989;48.796;9.806;2023-07-29T09:36:41;21.30;99.90
66184;DHT22;52989;48.796;9.806;2023-07-29T09:39:10;21.00;99.90
66184;DHT22;52989;48.796;9.806;2023-07-29T09:41:36;21.30;99.90
66184;DHT22;52989;48.796;9.806;2023-07-29T09:44:02;21.50;99.90
66184;DHT22;52989;48.796;9.806;2023-07-29T09:46:32;21.70;99.90
66184;DHT22;52989;48.796;9.806;2023-07-29T09:48:58;22.10;99.90
66184;DHT22;52989;48.796;9.806;2023-07-29T09:51:23;22.30;99.90
66184;DHT22;52989;48.796;9.806;2023-07-29T09:53:49;22.90;99.90
66184;DHT22;52989;48.796;9.806;2023-07-29T09:56:15;22.30;99.90
66184;DHT22;52989;48.796;9.806;2023-07-29T09:58:44;22.60;99.90
66184;DHT22;52989;48.796;9.806;2023-07-29T10:01:11;23.20;99.90
66184;DHT22;52989;48.796;9.806;2023-07-29T10:03:36;23.60;99.90
66184;DHT22;52989;48.796;9.806;2023-07-29T10:06:03;23.10;99.90
66184;DHT22;52989;48.796;9.806;2023-07-29T10:08:31;23.00;99.90
66184;DHT22;52989;48.796;9.806;2023-07-29T10:11:00;23.50;99.90
66184;DHT22;52989;48.796;9.806;2023-07-29T10:13:26;23.50;99.90
66184;DHT22;52989;48.796;9.806;2023-07-29T10:15:51;23.50;99.90
66184;DHT22;52989;48.796;9.806;2023-07-29T10:18:18;23.80;99.90
66184;DHT22;52989;48.796;9.806;2023-07-29T10:20:44;23.60;99.90
66184;DHT22;52989;48.796;9.806;2023-07-29T10:23:10;23.50;99.90
66184;DHT22;52989;48.796;9.806;2023-07-29T10:25:38;23.80;99.90
66184;DHT22;52989;48.796;9.806;2023-07-29T10:28:07;23.60;99.90
66184;DHT22;52989;48.796;9.806;2023-07-29T10:30:32;23.40;99.90
66184;DHT22;52989;48.796;9.806;2023-07-29T10:32:59;23.30;99.90
66184;DHT22;52989;48.796;9.806;2023-07-29T10:35:26;24.20;99.90
66184;DHT22;52989;48.796;9.806;2023-07-29T10:37:52;24.40;99.90
66184;DHT22;52989;48.796;9.806;2023-07-29T10:40:18;25.10;99.90
66184;DHT22;52989;48.796;9.806;2023-07-29T10:42:58;25.40;99.90
66184;DHT22;52989;48.796;9.806;2023-07-29T10:45:24;24.70;99.90
66184;DHT22;52989;48.796;9.806;2023-07-29T10:47:50;24.50;99.90
66184;DHT22;52989;48.796;9.806;2023-07-29T10:50:19;24.90;99.90
66184;DHT22;52989;48.796;9.806;2023-07-29T10:52:46;24.90;99.90
66184;DHT22;52989;48.796;9.806;2023-07-29T10:55:24;24.50;99.90
66184;DHT22;52989;48.796;9.806;2023-07-29T10:57:50;25.00;99.90
66184;DHT22;52989;48.796;9.806;2023-07-29T11:00:15;24.20;99.90
66184;DHT22;52989;48.796;9.806;2023-07-29T11:02:41;24.60;99.90
66184;DHT22;52989;48.796;9.806;2023-07-29T11:05:16;24.70;99.90
66184;DHT22;52989;48.796;9.806;2023-07-29T11:07:45;24.30;99.90
66184;DHT22;52989;48.796;9.806;2023-07-29T11:10:13;23.40;99.20
66184;DHT22;52989;48.796;9.806;2023-07-29T11:12:43;22.40;99.60
66184;DHT22;52989;48.796;9.806;2023-07-29T11:17:37;21.60;99.90
66184;DHT22;52989;48.796;9.806;2023-07-29T11:20:04;21.80;99.90
66184;DHT22;52989;48.796;9.806;2023-07-29T11:22:29;22.00;99.90
66184;DHT22;52989;48.796;9.806;2023-07-29T11:24:55;22.00;99.90
66184;DHT22;52989;48.796;9.806;2023-07-29T11:27:21;21.80;99.90
66184;DHT22;52989;48.796;9.806;2023-07-29T11:29:46;21.60;99.90
66184;DHT22;52989;48.796;9.806;2023-07-29T11:32:12;21.80;99.90
66184;DHT22;52989;48.796;9.806;2023-07-29T11:34:38;21.60;99.90
66184;DHT22;52989;48.796;9.806;2023-07-29T11:37:05;21.70;99.90
66184;DHT22;52989;48.796;9.806;2023-07-29T11:39:32;21.70;99.90
66184;DHT22;52989;48.796;9.806;2023-07-29T11:41:58;22.10;99.90
66184;DHT22;52989;48.796;9.806;2023-07-29T11:44:24;22.40;99.90
66184;DHT22;52989;48.796;9.806;2023-07-29T11:46:51;22.80;99.90
66184;DHT22;52989;48.796;9.806;2023-07-29T11:49:16;22.80;99.90
66184;DHT22;52989;48.796;9.806;2023-07-29T11:51:42;22.90;99.90
66184;DHT22;52989;48.796;9.806;2023-07-29T11:54:08;22.80;99.90
66184;DHT22;52989;48.796;9.806;2023-07-29T11:56:34;22.90;99.90
66184;DHT22;52989;48.796;9.806;2023-07-29T11:58:59;23.40;99.90
66184;DHT22;52989;48.796;9.806;2023-07-29T12:01:27;23.60;99.90
66184;DHT22;52989;48.796;9.806;2023-07-29T12:03:55;23.30;99.90
66184;DHT22;52989;48.796;9.806;2023-07-29T12:06:21;23.40;99.90
66184;DHT22;52989;48.796;9.806;2023-07-29T12:08:46;23.50;99.70
66184;DHT22;52989;48.796;9.806;2023-07-29T12:11:12;23.70;99.90
66184;DHT22;52989;48.796;9.806;2023-07-29T12:13:38;24.10;99.10
66184;DHT22;52989;48.796;9.806;2023-07-29T12:16:03;24.20;99.40
66184;DHT22;52989;48.796;9.806;2023-07-29T12:18:30;24.30;99.00
66184;DHT22;52989;48.796;9.806;2023-07-29T12:20:56;24.40;99.90
66184;DHT22;52989;48.796;9.806;2023-07-29T12:23:24;24.70;99.10
66184;DHT22;52989;48.796;9.806;2023-07-29T12:25:50;25.10;98.90
66184;DHT22;52989;48.796;9.806;2023-07-29T12:28:16;25.50;99.70
66184;DHT22;52989;48.796;9.806;2023-07-29T12:30:42;25.00;98.80
66184;DHT22;52989;48.796;9.806;2023-07-29T12:33:07;25.10;98.30
66184;DHT22;52989;48.796;9.806;2023-07-29T12:35:34;24.70;99.90
66184;DHT22;52989;48.796;9.806;2023-07-29T12:38:00;24.70;99.90
66184;DHT22;52989;48.796;9.806;2023-07-29T12:40:25;25.30;98.00
66184;DHT22;52989;48.796;9.806;2023-07-29T12:42:51;25.40;97.50
66184;DHT22;52989;48.796;9.806;2023-07-29T12:45:17;25.60;97.10
66184;DHT22;52989;48.796;9.806;2023-07-29T12:47:43;25.40;97.30
66184;DHT22;52989;48.796;9.806;2023-07-29T12:50:08;25.60;96.70
66184;DHT22;52989;48.796;9.806;2023-07-29T12:52:34;26.10;97.60
66184;DHT22;52989;48.796;9.806;2023-07-29T12:54:59;25.70;98.60
66184;DHT22;52989;48.796;9.806;2023-07-29T12:57:25;25.90;98.30
66184;DHT22;52989;48.796;9.806;2023-07-29T12:59:50;25.70;98.00
66184;DHT22;52989;48.796;9.806;2023-07-29T13:02:16;26.00;96.40
66184;DHT22;52989;48.796;9.806;2023-07-29T13:04:41;26.30;96.10
66184;DHT22;52989;48.796;9.806;2023-07-29T13:07:07;25.70;96.60
66184;DHT22;52989;48.796;9.806;2023-07-29T13:09:32;25.20;95.80
66184;DHT22;52989;48.796;9.806;2023-07-29T13:11:58;24.80;96.90
66184;DHT22;52989;48.796;9.806;2023-07-29T13:14:23;25.20;97.10
66184;DHT22;52989;48.796;9.806;2023-07-29T13:16:51;25.40;97.00
66184;DHT22;52989;48.796;9.806;2023-07-29T13:19:18;25.70;96.70
66184;DHT22;52989;48.796;9.806;2023-07-29T13:21:43;25.70;96.10
66184;DHT22;52989;48.796;9.806;2023-07-29T13:24:09;25.60;96.30
66184;DHT22;52989;48.796;9.806;2023-07-29T13:26:34;25.50;96.30
66184;DHT22;52989;48.796;9.806;2023-07-29T13:29:00;25.60;96.90
66184;DHT22;52989;48.796;9.806;2023-07-29T13:31:26;25.10;95.90
66184;DHT22;52989;48.796;9.806;2023-07-29T13:33:51;25.30;96.70
66184;DHT22;52989;48.796;9.806;2023-07-29T13:36:17;25.10;98.00
66184;DHT22;52989;48.796;9.806;2023-07-29T13:38:42;25.50;96.70
66184;DHT22;52989;48.796;9.806;2023-07-29T13:41:08;25.40;95.90
66184;DHT22;52989;48.796;9.806;2023-07-29T13:43:33;25.60;95.90
66184;DHT22;52989;48.796;9.806;2023-07-29T13:45:59;25.80;95.50
66184;DHT22;52989;48.796;9.806;2023-07-29T13:48:24;26.20;95.10
66184;DHT22;52989;48.796;9.806;2023-07-29T13:50:50;26.00;94.60
66184;DHT22;52989;48.796;9.806;2023-07-29T13:53:16;26.20;95.30
66184;DHT22;52989;48.796;9.806;2023-07-29T13:55:42;26.00;94.60
66184;DHT22;52989;48.796;9.806;2023-07-29T13:58:07;26.10;94.60
66184;DHT22;52989;48.796;9.806;2023-07-29T14:00:32;26.00;94.60
66184;DHT22;52989;48.796;9.806;2023-07-29T14:02:58;25.90;94.20
66184;DHT22;52989;48.796;9.806;2023-07-29T14:05:23;26.00;94.90
66184;DHT22;52989;48.796;9.806;2023-07-29T14:07:49;26.20;95.40
66184;DHT22;52989;48.796;9.806;2023-07-29T14:10:14;26.10;94.00
66184;DHT22;52989;48.796;9.806;2023-07-29T14:12:40;26.40;95.70
66184;DHT22;52989;48.796;9.806;2023-07-29T14:15:05;26.00;95.10
66184;DHT22;52989;48.796;9.806;2023-07-29T14:17:31;25.80;92.30
66184;DHT22;52989;48.796;9.806;2023-07-29T14:19:57;25.60;93.20
66184;DHT22;52989;48.796;9.806;2023-07-29T14:22:22;25.50;94.40
66184;DHT22;52989;48.796;9.806;2023-07-29T14:24:48;25.60;92.30
66184;DHT22;52989;48.796;9.806;2023-07-29T14:27:13;25.90;91.90
66184;DHT22;52989;48.796;9.806;2023-07-29T14:29:39;25.70;90.40
66184;DHT22;52989;48.796;9.806;2023-07-29T14:32:05;25.90;91.50
66184;DHT22;52989;48.796;9.806;2023-07-29T14:34:30;26.00;91.20
66184;DHT22;52989;48.796;9.806;2023-07-29T14:36:55;26.10;90.90
66184;DHT22;52989;48.796;9.806;2023-07-29T14:39:21;25.90;90.10
66184;DHT22;52989;48.796;9.806;2023-07-29T14:41:47;25.50;91.40
66184;DHT22;52989;48.796;9.806;2023-07-29T14:44:12;25.50;91.30
66184;DHT22;52989;48.796;9.806;2023-07-29T14:46:38;25.30;90.80
66184;DHT22;52989;48.796;9.806;2023-07-29T14:49:03;25.20;90.50
66184;DHT22;52989;48.796;9.806;2023-07-29T14:51:28;25.20;91.00
66184;DHT22;52989;48.796;9.806;2023-07-29T14:53:54;25.50;90.30
66184;DHT22;52989;48.796;9.806;2023-07-29T14:56:19;25.60;90.30
66184;DHT22;52989;48.796;9.806;2023-07-29T14:58:45;25.80;90.30
66184;DHT22;52989;48.796;9.806;2023-07-29T15:01:10;25.90;91.20
66184;DHT22;52989;48.796;9.806;2023-07-29T15:03:36;25.90;91.40
66184;DHT22;52989;48.796;9.806;2023-07-29T15:06:01;26.00;90.80
66184;DHT22;52989;48.796;9.806;2023-07-29T15:08:28;25.90;89.50
66184;DHT22;52989;48.796;9.806;2023-07-29T15:10:53;25.60;89.90
66184;DHT22;52989;48.796;9.806;2023-07-29T15:13:20;25.50;91.30
66184;DHT22;52989;48.796;9.806;2023-07-29T15:15:46;25.00;92.60
66184;DHT22;52989;48.796;9.806;2023-07-29T15:18:15;25.20;92.80
66184;DHT22;52989;48.796;9.806;2023-07-29T15:20:40;25.40;92.50
66184;DHT22;52989;48.796;9.806;2023-07-29T15:23:06;25.10;91.50
66184;DHT22;52989;48.796;9.806;2023-07-29T15:25:31;25.10;92.00
66184;DHT22;52989;48.796;9.806;2023-07-29T15:27:57;24.70;91.50
66184;DHT22;52989;48.796;9.806;2023-07-29T15:30:23;24.50;92.60
66184;DHT22;52989;48.796;9.806;2023-07-29T15:32:48;24.50;91.20
66184;DHT22;52989;48.796;9.806;2023-07-29T15:35:14;24.50;91.30